sensor_id;sensor_type;location;lat;lon;timestamp;P1;durP1;ratioP1;P2;durP2;ratioP2
33094;SDS011;19459;53.044;8.910;2023-01-01T00:01:07;21.45;;;5.63;;
33094;SDS011;19459;53.044;8.910;2023-01-01T00:03:38;12.00;;;5.15;;
33094;SDS011;19459;53.044;8.910;2023-01-01T00:06:05;19.50;;;5.55;;
33094;SDS011;19459;53.044;8.910;2023-01-01T00:08:33;18.90;;;7.25;;
33094;SDS011;19459;53.044;8.910;2023-01-01T00:11:01;19.02;;;6.20;;
33094;SDS011;19459;53.044;8.910;2023-01-01T00:13:27;9.95;;;4.85;;
33094;SDS011;19459;53.044;8.910;2023-01-01T00:15:53;22.70;;;6.40;;
33094;SDS011;19459;53.044;8.910;2023-01-01T00:18:19;21.90;;;6.00;;
33094;SDS011;19459;53.044;8.910;2023-01-01T00:20:45;21.23;;;5.30;;
33094;SDS011;19459;53.044;8.910;2023-01-01T00:23:11;16.30;;;5.40;;
33094;SDS011;19459;53.044;8.910;2023-01-01T00:25:38;15.40;;;5.32;;
33094;SDS011;19459;53.044;8.910;2023-01-01T00:28:04;21.27;;;6.15;;
33094;SDS011;19459;53.044;8.910;2023-01-01T00:30:31;23.13;;;7.00;;
33094;SDS011;19459;53.044;8.910;2023-01-01T00:32:57;15.57;;;5.50;;
33094;SDS011;19459;53.044;8.910;2023-01-01T00:35:23;12.32;;;4.78;;
33094;SDS011;19459;53.044;8.910;2023-01-01T00:37:49;17.02;;;5.38;;
33094;SDS011;19459;53.044;8.910;2023-01-01T00:40:15;17.75;;;5.05;;
33094;SDS011;19459;53.044;8.910;2023-01-01T00:42:42;15.00;;;5.53;;
33094;SDS011;19459;53.044;8.910;2023-01-01T00:45:08;13.05;;;4.65;;
33094;SDS011;19459;53.044;8.910;2023-01-01T00:47:34;13.43;;;4.88;;
33094;SDS011;19459;53.044;8.910;2023-01-01T00:50:00;16.77;;;5.95;;
33094;SDS011;19459;53.044;8.910;2023-01-01T00:52:26;18.52;;;4.72;;
33094;SDS011;19459;53.044;8.910;2023-01-01T00:54:52;14.65;;;5.35;;
33094;SDS011;19459;53.044;8.910;2023-01-01T00:57:18;11.95;;;5.00;;
33094;SDS011;19459;53.044;8.910;2023-01-01T00:59:44;17.27;;;5.63;;
33094;SDS011;19459;53.044;8.910;2023-01-01T01:02:10;12.60;;;4.13;;
33094;SDS011;19459;53.044;8.910;2023-01-01T01:04:39;14.68;;;4.50;;
33094;SDS011;19459;53.044;8.910;2023-01-01T01:07:05;13.10;;;4.70;;
33094;SDS011;19459;53.044;8.910;2023-01-01T01:09:58;15.10;;;5.10;;
33094;SDS011;19459;53.044;8.910;2023-01-01T01:12:40;16.80;;;4.07;;
33094;SDS011;19459;53.044;8.910;2023-01-01T01:15:07;13.55;;;4.53;;
33094;SDS011;19459;53.044;8.910;2023-01-01T01:17:34;14.40;;;4.50;;
33094;SDS011;19459;53.044;8.910;2023-01-01T01:20:00;16.95;;;4.40;;
33094;SDS011;19459;53.044;8.910;2023-01-01T01:22:27;20.27;;;5.50;;
33094;SDS011;19459;53.044;8.910;2023-01-01T01:24:53;14.40;;;4.93;;
33094;SDS011;19459;53.044;8.910;2023-01-01T01:27:19;13.07;;;4.35;;
33094;SDS011;19459;53.044;8.910;2023-01-01T01:29:45;10.82;;;4.78;;
33094;SDS011;19459;53.044;8.910;2023-01-01T01:32:11;23.70;;;4.85;;
33094;SDS011;19459;53.044;8.910;2023-01-01T01:34:37;16.08;;;4.32;;
33094;SDS011;19459;53.044;8.910;2023-01-01T01:37:03;17.42;;;4.22;;
33094;SDS011;19459;53.044;8.910;2023-01-01T01:39:30;12.98;;;4.35;;
33094;SDS011;19459;53.044;8.910;2023-01-01T01:41:56;11.40;;;4.60;;
33094;SDS011;19459;53.044;8.910;2023-01-01T01:55:34;15.75;;;5.55;;
33094;SDS011;19459;53.044;8.910;2023-01-01T01:58:04;12.98;;;4.53;;
33094;SDS011;19459;53.044;8.910;2023-01-01T02:00:34;16.27;;;5.00;;
33094;SDS011;19459;53.044;8.910;2023-01-01T02:03:01;15.95;;;4.90;;
33094;SDS011;19459;53.044;8.910;2023-01-01T02:05:32;13.25;;;4.72;;
33094;SDS011;19459;53.044;8.910;2023-01-01T02:07:59;13.90;;;4.63;;
33094;SDS011;19459;53.044;8.910;2023-01-01T02:10:29;11.30;;;5.18;;
33094;SDS011;19459;53.044;8.910;2023-01-01T02:12:55;15.63;;;5.15;;
33094;SDS011;19459;53.044;8.910;2023-01-01T02:15:22;11.77;;;4.75;;
33094;SDS011;19459;53.044;8.910;2023-01-01T02:21:00;13.88;;;4.90;;
33094;SDS011;19459;53.044;8.910;2023-01-01T02:29:16;16.80;;;5.72;;
33094;SDS011;19459;53.044;8.910;2023-01-01T02:32:15;15.15;;;6.28;;
33094;SDS011;19459;53.044;8.910;2023-01-01T02:34:53;18.38;;;5.88;;
33094;SDS011;19459;53.044;8.910;2023-01-01T02:37:50;11.20;;;4.78;;
33094;SDS011;19459;53.044;8.910;2023-01-01T02:40:21;12.35;;;4.80;;
33094;SDS011;19459;53.044;8.910;2023-01-01T02:42:49;8.10;;;4.60;;
33094;SDS011;19459;53.044;8.910;2023-01-01T02:45:16;9.73;;;4.28;;
33094;SDS011;19459;53.044;8.910;2023-01-01T02:47:42;14.82;;;5.65;;
33094;SDS011;19459;53.044;8.910;2023-01-01T02:50:15;10.68;;;4.65;;
33094;SDS011;19459;53.044;8.910;2023-01-01T02:52:51;11.75;;;5.63;;
33094;SDS011;19459;53.044;8.910;2023-01-01T02:55:44;19.50;;;5.80;;
33094;SDS011;19459;53.044;8.910;2023-01-01T03:01:33;15.57;;;4.82;;
33094;SDS011;19459;53.044;8.910;2023-01-01T03:04:30;14.65;;;5.40;;
33094;SDS011;19459;53.044;8.910;2023-01-01T03:07:22;12.88;;;5.20;;
33094;SDS011;19459;53.044;8.910;2023-01-01T03:10:23;12.30;;;5.00;;
33094;SDS011;19459;53.044;8.910;2023-01-01T03:13:11;13.88;;;5.10;;
33094;SDS011;19459;53.044;8.910;2023-01-01T03:16:22;21.98;;;5.90;;
33094;SDS011;19459;53.044;8.910;2023-01-01T03:21:39;13.20;;;5.45;;
33094;SDS011;19459;53.044;8.910;2023-01-01T03:27:06;16.08;;;6.68;;
33094;SDS011;19459;53.044;8.910;2023-01-01T03:29:58;20.50;;;7.88;;
33094;SDS011;19459;53.044;8.910;2023-01-01T03:32:33;10.95;;;5.65;;
33094;SDS011;19459;53.044;8.910;2023-01-01T03:35:26;15.07;;;6.13;;
33094;SDS011;19459;53.044;8.910;2023-01-01T03:38:28;14.75;;;5.93;;
33094;SDS011;19459;53.044;8.910;2023-01-01T03:41:11;18.80;;;7.78;;
33094;SDS011;19459;53.044;8.910;2023-01-01T03:46:53;19.05;;;6.93;;
33094;SDS011;19459;53.044;8.910;2023-01-01T03:49:19;14.82;;;5.18;;
33094;SDS011;19459;53.044;8.910;2023-01-01T03:54:53;13.88;;;5.40;;
33094;SDS011;19459;53.044;8.910;2023-01-01T04:00:30;20.95;;;5.65;;
33094;SDS011;19459;53.044;8.910;2023-01-01T04:05:42;16.65;;;6.50;;
33094;SDS011;19459;53.044;8.910;2023-01-01T04:08:08;14.70;;;6.38;;
33094;SDS011;19459;53.044;8.910;2023-01-01T04:10:36;14.05;;;5.55;;
33094;SDS011;19459;53.044;8.910;2023-01-01T04:13:15;12.48;;;5.30;;
33094;SDS011;19459;53.044;8.910;2023-01-01T04:15:41;12.38;;;5.45;;
33094;SDS011;19459;53.044;8.910;2023-01-01T04:18:07;12.30;;;5.15;;
33094;SDS011;19459;53.044;8.910;2023-01-01T04:20:33;17.08;;;5.43;;
33094;SDS011;19459;53.044;8.910;2023-01-01T04:22:59;12.05;;;4.72;;
33094;SDS011;19459;53.044;8.910;2023-01-01T04:25:26;8.98;;;4.32;;
33094;SDS011;19459;53.044;8.910;2023-01-01T04:27:53;9.93;;;4.35;;
33094;SDS011;19459;53.044;8.910;2023-01-01T04:30:19;14.57;;;4.57;;
33094;SDS011;19459;53.044;8.910;2023-01-01T04:32:45;13.93;;;4.80;;
33094;SDS011;19459;53.044;8.910;2023-01-01T04:35:11;11.05;;;3.70;;
33094;SDS011;19459;53.044;8.910;2023-01-01T04:37:39;14.45;;;4.65;;
33094;SDS011;19459;53.044;8.910;2023-01-01T04:40:07;17.00;;;4.43;;
33094;SDS011;19459;53.044;8.910;2023-01-01T04:42:35;10.60;;;3.88;;
33094;SDS011;19459;53.044;8.910;2023-01-01T04:45:01;22.10;;;5.10;;
33094;SDS011;19459;53.044;8.910;2023-01-01T04:47:26;12.73;;;4.63;;
33094;SDS011;19459;53.044;8.910;2023-01-01T04:49:52;10.10;;;3.30;;
33094;SDS011;19459;53.044;8.910;2023-01-01T04:52:18;12.20;;;4.00;;
33094;SDS011;19459;53.044;8.910;2023-01-01T04:54:45;9.55;;;3.60;;
33094;SDS011;19459;53.044;8.910;2023-01-01T04:57:11;9.75;;;3.55;;
33094;SDS011;19459;53.044;8.910;2023-01-01T04:59:37;11.48;;;4.38;;
33094;SDS011;19459;53.044;8.910;2023-01-01T05:02:03;21.45;;;4.80;;
33094;SDS011;19459;53.044;8.910;2023-01-01T05:04:28;11.82;;;3.67;;
33094;SDS011;19459;53.044;8.910;2023-01-01T05:06:54;9.98;;;4.75;;
33094;SDS011;19459;53.044;8.910;2023-01-01T05:09:20;18.77;;;4.25;;
33094;SDS011;19459;53.044;8.910;2023-01-01T05:11:46;19.80;;;4.32;;
33094;SDS011;19459;53.044;8.910;2023-01-01T05:14:12;10.80;;;4.88;;
33094;SDS011;19459;53.044;8.910;2023-01-01T05:16:38;10.30;;;4.07;;
33094;SDS011;19459;53.044;8.910;2023-01-01T05:19:05;12.38;;;4.07;;
33094;SDS011;19459;53.044;8.910;2023-01-01T05:21:35;13.52;;;4.15;;
33094;SDS011;19459;53.044;8.910;2023-01-01T05:24:05;9.60;;;3.70;;
33094;SDS011;19459;53.044;8.910;2023-01-01T05:26:34;15.50;;;4.35;;
33094;SDS011;19459;53.044;8.910;2023-01-01T05:29:05;10.70;;;3.63;;
33094;SDS011;19459;53.044;8.910;2023-01-01T05:31:32;21.02;;;4.20;;
33094;SDS011;19459;53.044;8.910;2023-01-01T05:34:00;16.98;;;3.63;;
33094;SDS011;19459;53.044;8.910;2023-01-01T05:36:31;11.43;;;3.78;;
33094;SDS011;19459;53.044;8.910;2023-01-01T05:39:02;9.20;;;2.92;;
33094;SDS011;19459;53.044;8.910;2023-01-01T05:41:30;18.25;;;3.53;;
33094;SDS011;19459;53.044;8.910;2023-01-01T05:43:58;10.40;;;3.33;;
33094;SDS011;19459;53.044;8.910;2023-01-01T05:46:27;10.15;;;3.50;;
33094;SDS011;19459;53.044;8.910;2023-01-01T05:48:53;9.02;;;2.75;;
33094;SDS011;19459;53.044;8.910;2023-01-01T05:51:19;6.03;;;3.13;;
33094;SDS011;19459;53.044;8.910;2023-01-01T05:53:48;8.35;;;2.78;;
33094;SDS011;19459;53.044;8.910;2023-01-01T05:56:15;8.05;;;2.53;;
33094;SDS011;19459;53.044;8.910;2023-01-01T05:58:41;11.25;;;3.08;;
33094;SDS011;19459;53.044;8.910;2023-01-01T06:01:10;13.48;;;2.55;;
33094;SDS011;19459;53.044;8.910;2023-01-01T06:06:12;14.93;;;3.08;;
33094;SDS011;19459;53.044;8.910;2023-01-01T06:08:40;8.77;;;2.95;;
33094;SDS011;19459;53.044;8.910;2023-01-01T06:11:07;11.10;;;2.80;;
33094;SDS011;19459;53.044;8.910;2023-01-01T06:13:35;10.00;;;2.80;;
33094;SDS011;19459;53.044;8.910;2023-01-01T06:16:02;10.05;;;2.67;;
33094;SDS011;19459;53.044;8.910;2023-01-01T06:18:29;11.00;;;3.10;;
33094;SDS011;19459;53.044;8.910;2023-01-01T06:21:05;10.75;;;3.20;;
33094;SDS011;19459;53.044;8.910;2023-01-01T06:23:39;7.75;;;2.83;;
33094;SDS011;19459;53.044;8.910;2023-01-01T06:26:06;10.43;;;2.13;;
33094;SDS011;19459;53.044;8.910;2023-01-01T06:28:38;10.23;;;2.92;;
33094;SDS011;19459;53.044;8.910;2023-01-01T06:31:06;8.52;;;2.80;;
33094;SDS011;19459;53.044;8.910;2023-01-01T06:33:34;12.32;;;3.28;;
33094;SDS011;19459;53.044;8.910;2023-01-01T06:36:01;6.07;;;1.65;;
33094;SDS011;19459;53.044;8.910;2023-01-01T06:38:30;7.72;;;2.17;;
33094;SDS011;19459;53.044;8.910;2023-01-01T06:41:03;8.73;;;2.83;;
33094;SDS011;19459;53.044;8.910;2023-01-01T06:43:43;12.00;;;2.53;;
33094;SDS011;19459;53.044;8.910;2023-01-01T06:46:15;8.73;;;2.65;;
33094;SDS011;19459;53.044;8.910;2023-01-01T06:48:50;10.90;;;2.10;;
33094;SDS011;19459;53.044;8.910;2023-01-01T06:51:23;5.35;;;1.80;;
33094;SDS011;19459;53.044;8.910;2023-01-01T06:53:51;12.27;;;2.25;;
33094;SDS011;19459;53.044;8.910;2023-01-01T06:56:18;4.25;;;2.22;;
33094;SDS011;19459;53.044;8.910;2023-01-01T06:58:45;7.85;;;2.35;;
33094;SDS011;19459;53.044;8.910;2023-01-01T07:01:12;6.32;;;2.40;;
33094;SDS011;19459;53.044;8.910;2023-01-01T07:03:41;6.43;;;2.10;;
33094;SDS011;19459;53.044;8.910;2023-01-01T07:06:07;7.97;;;2.35;;
33094;SDS011;19459;53.044;8.910;2023-01-01T07:08:34;5.53;;;1.92;;
33094;SDS011;19459;53.044;8.910;2023-01-01T07:11:00;13.13;;;2.10;;
33094;SDS011;19459;53.044;8.910;2023-01-01T07:13:27;4.30;;;2.17;;
33094;SDS011;19459;53.044;8.910;2023-01-01T07:15:54;6.28;;;2.38;;
33094;SDS011;19459;53.044;8.910;2023-01-01T07:18:20;9.23;;;2.33;;
33094;SDS011;19459;53.044;8.910;2023-01-01T07:20:55;6.82;;;1.85;;
33094;SDS011;19459;53.044;8.910;2023-01-01T07:23:23;9.57;;;2.67;;
33094;SDS011;19459;53.044;8.910;2023-01-01T07:25:50;11.20;;;2.70;;
33094;SDS011;19459;53.044;8.910;2023-01-01T07:28:17;6.60;;;2.28;;
33094;SDS011;19459;53.044;8.910;2023-01-01T07:30:44;7.90;;;2.72;;
33094;SDS011;19459;53.044;8.910;2023-01-01T07:33:11;8.45;;;2.22;;
33094;SDS011;19459;53.044;8.910;2023-01-01T07:35:41;7.63;;;2.60;;
33094;SDS011;19459;53.044;8.910;2023-01-01T07:38:08;12.55;;;2.85;;
33094;SDS011;19459;53.044;8.910;2023-01-01T07:40:34;11.60;;;3.25;;
33094;SDS011;19459;53.044;8.910;2023-01-01T07:43:01;8.20;;;2.28;;
33094;SDS011;19459;53.044;8.910;2023-01-01T07:45:27;8.02;;;2.40;;
33094;SDS011;19459;53.044;8.910;2023-01-01T07:47:53;6.85;;;1.70;;
33094;SDS011;19459;53.044;8.910;2023-01-01T07:50:23;5.65;;;1.52;;
33094;SDS011;19459;53.044;8.910;2023-01-01T07:52:52;6.47;;;2.22;;
33094;SDS011;19459;53.044;8.910;2023-01-01T07:55:18;5.50;;;1.33;;
33094;SDS011;19459;53.044;8.910;2023-01-01T07:57:45;7.80;;;1.85;;
33094;SDS011;19459;53.044;8.910;2023-01-01T08:00:12;4.95;;;1.90;;
33094;SDS011;19459;53.044;8.910;2023-01-01T08:02:40;11.82;;;1.73;;
33094;SDS011;19459;53.044;8.910;2023-01-01T08:05:06;6.97;;;1.90;;
33094;SDS011;19459;53.044;8.910;2023-01-01T08:07:33;8.55;;;1.83;;
33094;SDS011;19459;53.044;8.910;2023-01-01T08:09:59;4.38;;;1.98;;
33094;SDS011;19459;53.044;8.910;2023-01-01T08:12:25;4.35;;;1.70;;
33094;SDS011;19459;53.044;8.910;2023-01-01T08:14:51;4.63;;;1.60;;
33094;SDS011;19459;53.044;8.910;2023-01-01T08:17:17;9.82;;;2.75;;
33094;SDS011;19459;53.044;8.910;2023-01-01T08:19:42;5.03;;;1.60;;
33094;SDS011;19459;53.044;8.910;2023-01-01T08:22:13;7.90;;;2.17;;
33094;SDS011;19459;53.044;8.910;2023-01-01T08:24:39;8.55;;;2.05;;
33094;SDS011;19459;53.044;8.910;2023-01-01T08:27:05;7.43;;;1.88;;
33094;SDS011;19459;53.044;8.910;2023-01-01T08:29:31;6.22;;;1.80;;
33094;SDS011;19459;53.044;8.910;2023-01-01T08:31:57;6.95;;;2.05;;
33094;SDS011;19459;53.044;8.910;2023-01-01T08:34:23;9.65;;;1.85;;
33094;SDS011;19459;53.044;8.910;2023-01-01T08:36:48;6.70;;;1.73;;
33094;SDS011;19459;53.044;8.910;2023-01-01T08:39:15;9.65;;;2.58;;
33094;SDS011;19459;53.044;8.910;2023-01-01T08:41:41;12.90;;;2.53;;
33094;SDS011;19459;53.044;8.910;2023-01-01T08:44:06;8.80;;;2.13;;
33094;SDS011;19459;53.044;8.910;2023-01-01T08:46:32;8.15;;;1.90;;
33094;SDS011;19459;53.044;8.910;2023-01-01T08:48:58;10.60;;;1.98;;
33094;SDS011;19459;53.044;8.910;2023-01-01T08:51:24;4.97;;;2.40;;
33094;SDS011;19459;53.044;8.910;2023-01-01T08:53:50;7.68;;;1.90;;
33094;SDS011;19459;53.044;8.910;2023-01-01T08:56:16;9.65;;;2.20;;
33094;SDS011;19459;53.044;8.910;2023-01-01T08:58:42;5.40;;;2.28;;
33094;SDS011;19459;53.044;8.910;2023-01-01T09:01:08;4.50;;;1.60;;
33094;SDS011;19459;53.044;8.910;2023-01-01T09:03:35;5.45;;;1.70;;
33094;SDS011;19459;53.044;8.910;2023-01-01T09:06:01;8.13;;;2.65;;
33094;SDS011;19459;53.044;8.910;2023-01-01T09:08:27;5.00;;;1.80;;
33094;SDS011;19459;53.044;8.910;2023-01-01T09:10:56;3.67;;;1.98;;
33094;SDS011;19459;53.044;8.910;2023-01-01T09:13:24;4.00;;;1.75;;
33094;SDS011;19459;53.044;8.910;2023-01-01T09:15:50;4.18;;;1.95;;
33094;SDS011;19459;53.044;8.910;2023-01-01T09:18:16;3.35;;;1.08;;
33094;SDS011;19459;53.044;8.910;2023-01-01T09:20:43;5.05;;;1.25;;
33094;SDS011;19459;53.044;8.910;2023-01-01T09:23:09;2.95;;;1.00;;
33094;SDS011;19459;53.044;8.910;2023-01-01T09:25:36;5.68;;;1.10;;
33094;SDS011;19459;53.044;8.910;2023-01-01T09:28:10;5.03;;;1.33;;
33094;SDS011;19459;53.044;8.910;2023-01-01T09:30:38;4.45;;;1.52;;
33094;SDS011;19459;53.044;8.910;2023-01-01T09:33:03;2.05;;;0.93;;
33094;SDS011;19459;53.044;8.910;2023-01-01T09:35:29;3.75;;;0.90;;
33094;SDS011;19459;53.044;8.910;2023-01-01T09:37:55;6.15;;;1.60;;
33094;SDS011;19459;53.044;8.910;2023-01-01T09:40:31;4.82;;;1.38;;
33094;SDS011;19459;53.044;8.910;2023-01-01T09:43:31;3.25;;;0.82;;
33094;SDS011;19459;53.044;8.910;2023-01-01T09:46:25;4.45;;;0.90;;
33094;SDS011;19459;53.044;8.910;2023-01-01T09:48:55;7.20;;;1.17;;
33094;SDS011;19459;53.044;8.910;2023-01-01T09:51:25;4.53;;;1.85;;
33094;SDS011;19459;53.044;8.910;2023-01-01T09:54:00;3.05;;;1.17;;
33094;SDS011;19459;53.044;8.910;2023-01-01T09:56:50;2.53;;;1.40;;
33094;SDS011;19459;53.044;8.910;2023-01-01T09:59:21;5.82;;;1.15;;
33094;SDS011;19459;53.044;8.910;2023-01-01T10:02:00;2.33;;;0.82;;
33094;SDS011;19459;53.044;8.910;2023-01-01T10:12:53;2.72;;;0.65;;
33094;SDS011;19459;53.044;8.910;2023-01-01T10:15:26;4.22;;;1.20;;
33094;SDS011;19459;53.044;8.910;2023-01-01T10:17:58;2.40;;;0.80;;
33094;SDS011;19459;53.044;8.910;2023-01-01T10:20:37;2.70;;;0.60;;
33094;SDS011;19459;53.044;8.910;2023-01-01T10:23:24;3.50;;;0.70;;
33094;SDS011;19459;53.044;8.910;2023-01-01T10:26:07;3.40;;;0.65;;
33094;SDS011;19459;53.044;8.910;2023-01-01T10:33:47;4.28;;;0.82;;
33094;SDS011;19459;53.044;8.910;2023-01-01T10:36:15;3.22;;;0.70;;
33094;SDS011;19459;53.044;8.910;2023-01-01T10:38:43;3.47;;;0.90;;
33094;SDS011;19459;53.044;8.910;2023-01-01T10:41:12;2.92;;;0.93;;
33094;SDS011;19459;53.044;8.910;2023-01-01T10:43:38;7.75;;;1.02;;
33094;SDS011;19459;53.044;8.910;2023-01-01T10:46:04;4.60;;;0.80;;
33094;SDS011;19459;53.044;8.910;2023-01-01T10:48:31;3.55;;;1.00;;
33094;SDS011;19459;53.044;8.910;2023-01-01T10:50:59;6.65;;;1.23;;
33094;SDS011;19459;53.044;8.910;2023-01-01T10:56:06;3.15;;;0.60;;
33094;SDS011;19459;53.044;8.910;2023-01-01T11:01:12;2.70;;;0.98;;
33094;SDS011;19459;53.044;8.910;2023-01-01T11:03:59;2.58;;;0.77;;
33094;SDS011;19459;53.044;8.910;2023-01-01T11:06:38;15.25;;;1.60;;
33094;SDS011;19459;53.044;8.910;2023-01-01T11:09:18;2.33;;;0.80;;
33094;SDS011;19459;53.044;8.910;2023-01-01T11:11:59;7.03;;;1.15;;
33094;SDS011;19459;53.044;8.910;2023-01-01T11:14:28;3.65;;;0.85;;
33094;SDS011;19459;53.044;8.910;2023-01-01T11:17:00;8.48;;;1.45;;
33094;SDS011;19459;53.044;8.910;2023-01-01T11:19:27;6.70;;;0.98;;
33094;SDS011;19459;53.044;8.910;2023-01-01T11:22:05;10.45;;;1.30;;
33094;SDS011;19459;53.044;8.910;2023-01-01T11:27:26;11.88;;;1.85;;
33094;SDS011;19459;53.044;8.910;2023-01-01T11:30:16;8.10;;;1.38;;
33094;SDS011;19459;53.044;8.910;2023-01-01T11:33:00;2.72;;;0.98;;
33094;SDS011;19459;53.044;8.910;2023-01-01T11:35:29;5.35;;;1.45;;
33094;SDS011;19459;53.044;8.910;2023-01-01T11:37:58;9.93;;;2.90;;
33094;SDS011;19459;53.044;8.910;2023-01-01T11:40:34;6.65;;;1.20;;
33094;SDS011;19459;53.044;8.910;2023-01-01T11:43:04;8.20;;;1.30;;
33094;SDS011;19459;53.044;8.910;2023-01-01T11:45:32;8.20;;;1.27;;
33094;SDS011;19459;53.044;8.910;2023-01-01T11:48:39;3.83;;;1.25;;
33094;SDS011;19459;53.044;8.910;2023-01-01T11:51:01;3.88;;;1.10;;
33094;SDS011;19459;53.044;8.910;2023-01-01T11:53:31;5.07;;;1.15;;
33094;SDS011;19459;53.044;8.910;2023-01-01T11:56:10;6.85;;;1.60;;
33094;SDS011;19459;53.044;8.910;2023-01-01T11:58:57;9.13;;;1.60;;
33094;SDS011;19459;53.044;8.910;2023-01-01T12:06:56;4.47;;;1.40;;
33094;SDS011;19459;53.044;8.910;2023-01-01T12:09:44;8.02;;;1.13;;
33094;SDS011;19459;53.044;8.910;2023-01-01T12:12:33;9.10;;;1.20;;
33094;SDS011;19459;53.044;8.910;2023-01-01T12:20:25;7.53;;;1.30;;
33094;SDS011;19459;53.044;8.910;2023-01-01T12:23:06;5.72;;;1.27;;
33094;SDS011;19459;53.044;8.910;2023-01-01T12:25:42;5.70;;;1.60;;
33094;SDS011;19459;53.044;8.910;2023-01-01T12:48:22;11.05;;;2.00;;
33094;SDS011;19459;53.044;8.910;2023-01-01T12:50:59;7.05;;;1.63;;
33094;SDS011;19459;53.044;8.910;2023-01-01T12:53:48;7.45;;;2.20;;
33094;SDS011;19459;53.044;8.910;2023-01-01T12:59:39;8.32;;;2.53;;
33094;SDS011;19459;53.044;8.910;2023-01-01T13:02:21;12.65;;;2.10;;
33094;SDS011;19459;53.044;8.910;2023-01-01T13:04:54;6.22;;;1.58;;
33094;SDS011;19459;53.044;8.910;2023-01-01T13:07:45;7.72;;;1.70;;
33094;SDS011;19459;53.044;8.910;2023-01-01T13:12:58;12.50;;;2.10;;
33094;SDS011;19459;53.044;8.910;2023-01-01T13:18:06;13.93;;;2.60;;
33094;SDS011;19459;53.044;8.910;2023-01-01T13:45:29;8.63;;;2.78;;
33094;SDS011;19459;53.044;8.910;2023-01-01T14:02:21;9.68;;;2.67;;
33094;SDS011;19459;53.044;8.910;2023-01-01T14:05:04;11.45;;;2.40;;
33094;SDS011;19459;53.044;8.910;2023-01-01T14:07:59;7.18;;;2.30;;
33094;SDS011;19459;53.044;8.910;2023-01-01T14:15:36;12.93;;;2.90;;
33094;SDS011;19459;53.044;8.910;2023-01-01T14:18:10;8.77;;;2.67;;
33094;SDS011;19459;53.044;8.910;2023-01-01T14:25:59;13.85;;;2.35;;
33094;SDS011;19459;53.044;8.910;2023-01-01T14:28:32;10.50;;;3.30;;
33094;SDS011;19459;53.044;8.910;2023-01-01T14:30:59;11.48;;;3.15;;
33094;SDS011;19459;53.044;8.910;2023-01-01T14:33:32;19.10;;;3.17;;
33094;SDS011;19459;53.044;8.910;2023-01-01T14:36:00;12.07;;;2.88;;
33094;SDS011;19459;53.044;8.910;2023-01-01T14:38:33;9.02;;;2.13;;
33094;SDS011;19459;53.044;8.910;2023-01-01T14:43:55;12.35;;;2.90;;
33094;SDS011;19459;53.044;8.910;2023-01-01T14:46:27;11.57;;;2.53;;
33094;SDS011;19459;53.044;8.910;2023-01-01T14:48:59;12.35;;;2.28;;
33094;SDS011;19459;53.044;8.910;2023-01-01T14:51:31;8.82;;;2.63;;
33094;SDS011;19459;53.044;8.910;2023-01-01T14:53:57;8.23;;;1.77;;
33094;SDS011;19459;53.044;8.910;2023-01-01T14:56:33;10.82;;;2.78;;
33094;SDS011;19459;53.044;8.910;2023-01-01T15:01:42;10.50;;;2.95;;
33094;SDS011;19459;53.044;8.910;2023-01-01T15:04:18;9.93;;;2.47;;
33094;SDS011;19459;53.044;8.910;2023-01-01T15:06:54;11.20;;;2.65;;
33094;SDS011;19459;53.044;8.910;2023-01-01T15:09:22;9.85;;;2.92;;
33094;SDS011;19459;53.044;8.910;2023-01-01T15:11:52;13.65;;;3.63;;
33094;SDS011;19459;53.044;8.910;2023-01-01T15:14:30;10.48;;;3.50;;
33094;SDS011;19459;53.044;8.910;2023-01-01T15:19:39;9.82;;;2.47;;
33094;SDS011;19459;53.044;8.910;2023-01-01T15:22:13;8.77;;;3.22;;
33094;SDS011;19459;53.044;8.910;2023-01-01T15:27:26;15.75;;;2.90;;
33094;SDS011;19459;53.044;8.910;2023-01-01T15:29:54;11.38;;;4.35;;
33094;SDS011;19459;53.044;8.910;2023-01-01T15:32:28;16.67;;;3.65;;
33094;SDS011;19459;53.044;8.910;2023-01-01T15:35:19;9.45;;;4.32;;
33094;SDS011;19459;53.044;8.910;2023-01-01T15:37:58;15.93;;;6.80;;
33094;SDS011;19459;53.044;8.910;2023-01-01T15:40:36;18.60;;;5.95;;
33094;SDS011;19459;53.044;8.910;2023-01-01T15:43:07;8.80;;;3.70;;
33094;SDS011;19459;53.044;8.910;2023-01-01T15:45:40;10.48;;;3.20;;
33094;SDS011;19459;53.044;8.910;2023-01-01T15:50:39;15.25;;;3.65;;
33094;SDS011;19459;53.044;8.910;2023-01-01T15:53:15;18.25;;;4.68;;
33094;SDS011;19459;53.044;8.910;2023-01-01T15:56:08;13.20;;;3.85;;
33094;SDS011;19459;53.044;8.910;2023-01-01T16:01:26;12.77;;;5.90;;
33094;SDS011;19459;53.044;8.910;2023-01-01T16:04:14;14.70;;;5.30;;
33094;SDS011;19459;53.044;8.910;2023-01-01T16:06:50;19.40;;;5.72;;
33094;SDS011;19459;53.044;8.910;2023-01-01T16:09:19;16.27;;;5.72;;
33094;SDS011;19459;53.044;8.910;2023-01-01T16:11:49;15.73;;;4.57;;
33094;SDS011;19459;53.044;8.910;2023-01-01T16:14:17;20.83;;;5.03;;
33094;SDS011;19459;53.044;8.910;2023-01-01T16:16:44;22.65;;;6.53;;
33094;SDS011;19459;53.044;8.910;2023-01-01T16:19:16;20.25;;;7.57;;
33094;SDS011;19459;53.044;8.910;2023-01-01T16:21:42;17.50;;;4.78;;
33094;SDS011;19459;53.044;8.910;2023-01-01T16:24:12;17.45;;;5.57;;
33094;SDS011;19459;53.044;8.910;2023-01-01T16:26:39;12.98;;;5.53;;
33094;SDS011;19459;53.044;8.910;2023-01-01T16:29:06;14.02;;;4.30;;
33094;SDS011;19459;53.044;8.910;2023-01-01T16:31:32;31.48;;;12.18;;
33094;SDS011;19459;53.044;8.910;2023-01-01T16:33:59;28.90;;;10.40;;
33094;SDS011;19459;53.044;8.910;2023-01-01T16:36:25;17.60;;;4.57;;
33094;SDS011;19459;53.044;8.910;2023-01-01T16:38:53;18.98;;;7.30;;
33094;SDS011;19459;53.044;8.910;2023-01-01T16:41:20;12.70;;;5.75;;
33094;SDS011;19459;53.044;8.910;2023-01-01T16:43:46;13.18;;;4.90;;
33094;SDS011;19459;53.044;8.910;2023-01-01T16:46:12;17.05;;;4.93;;
33094;SDS011;19459;53.044;8.910;2023-01-01T16:48:39;17.73;;;5.47;;
33094;SDS011;19459;53.044;8.910;2023-01-01T16:51:05;14.43;;;6.05;;
33094;SDS011;19459;53.044;8.910;2023-01-01T16:53:34;24.23;;;8.35;;
33094;SDS011;19459;53.044;8.910;2023-01-01T16:56:00;32.83;;;11.93;;
33094;SDS011;19459;53.044;8.910;2023-01-01T16:58:26;67.25;;;21.10;;
33094;SDS011;19459;53.044;8.910;2023-01-01T17:00:57;32.05;;;10.77;;
33094;SDS011;19459;53.044;8.910;2023-01-01T17:03:24;28.83;;;9.65;;
33094;SDS011;19459;53.044;8.910;2023-01-01T17:05:50;62.20;;;18.92;;
33094;SDS011;19459;53.044;8.910;2023-01-01T17:08:16;19.98;;;6.15;;
33094;SDS011;19459;53.044;8.910;2023-01-01T17:10:41;16.80;;;5.10;;
33094;SDS011;19459;53.044;8.910;2023-01-01T17:13:07;18.77;;;6.95;;
33094;SDS011;19459;53.044;8.910;2023-01-01T17:15:33;16.30;;;5.57;;
33094;SDS011;19459;53.044;8.910;2023-01-01T17:17:59;9.15;;;4.22;;
33094;SDS011;19459;53.044;8.910;2023-01-01T17:20:25;16.98;;;4.30;;
33094;SDS011;19459;53.044;8.910;2023-01-01T17:22:51;12.90;;;4.40;;
33094;SDS011;19459;53.044;8.910;2023-01-01T17:25:17;17.85;;;5.03;;
33094;SDS011;19459;53.044;8.910;2023-01-01T17:27:43;11.52;;;4.30;;
33094;SDS011;19459;53.044;8.910;2023-01-01T17:30:12;17.38;;;4.75;;
33094;SDS011;19459;53.044;8.910;2023-01-01T17:32:38;20.98;;;4.88;;
33094;SDS011;19459;53.044;8.910;2023-01-01T17:35:05;17.08;;;5.35;;
33094;SDS011;19459;53.044;8.910;2023-01-01T17:37:31;16.67;;;5.70;;
33094;SDS011;19459;53.044;8.910;2023-01-01T17:39:57;15.63;;;6.15;;
33094;SDS011;19459;53.044;8.910;2023-01-01T17:42:26;13.15;;;4.57;;
33094;SDS011;19459;53.044;8.910;2023-01-01T17:44:52;15.45;;;5.63;;
33094;SDS011;19459;53.044;8.910;2023-01-01T17:47:18;17.13;;;5.18;;
33094;SDS011;19459;53.044;8.910;2023-01-01T17:49:43;11.50;;;4.00;;
33094;SDS011;19459;53.044;8.910;2023-01-01T17:52:09;13.55;;;4.68;;